DK-0022 weather

Frederikssund Nord Glider Field
Capital Region, Denmark

Public forecast

Using degrees Celsius for public forecast. Weather courtesy of forecast.io.

Closest aviation weather report (METAR) to Frederikssund Nord Glider Field

Closest report is Copenhagen Roskilde Airport, 16.1 nm (29.9 km) S. Retrieved 2020/05/29 12:20 UTC (16 minutes ago):

EKRK 291220Z AUTO 34008KT 9999 FEW160/// BKN180/// 17/07 Q1030

Closest aviation forecast (TAF) to Frederikssund Nord Glider Field

Closest forecast is Copenhagen Kastrup Airport, 24.2 nm (44.8 km) SE. Retrieved 2020/05/29 12:00 UTC (36 minutes ago):

TAF EKCH 291103Z 2912/3012 03008KT 9999 FEW040